Airfield :
LOGIN :

Register | Disclaimer

   EN    FR    IT 

 










Legend :    VFR   Marginal VFR   IFR   Intensive IFR   Very Intensive IFR
Visi :
Ceiling :
>= 8 km
>= 3000ft
5 to 8 km
1000 to 3000 ft
1500m to 5 km
500 to 1000 ft
800 to 1500m
200 to 500 ft
< 800m
< 200 ft
Symbols :   Thunderstorms  Fog  Heavy snow  Heavy precipitations  Wind > 20 kt
SIGMETs :     Misc.  Thunderstorms  Icing  Turbulence  Mountain Waves  Volcanic Ashes






- Airport Elevation : 233 ft
- IATA code : REU


LERS - Reus Tarragona

CURRENT METAR :
  • 032300Z AUTO 24003KT CAVOK 23/15 Q1017

EXPIRED METARs :
  • 032230Z AUTO VRB01KT CAVOK 23/14 Q1017
  • 032200Z 09006KT 9999 FEW040 25/14 Q1016
  • 032130Z 09006KT 050V130 9999 FEW040 26/14 Q1016
  • 032100Z 06006KT 020V090 9999 FEW040 25/18 Q1017
  • 032030Z 07004KT 020V110 9999 FEW040 25/17 Q1018

TAF TAF LERS
Valid from the 03 at 21:00 until the 04 at 21:00 UTC


032000Z 0321/0421 VRB04KT 9999 FEW030 TX31/0413Z TN20/0405Z
BECMG 0410/0412 15007KT



MET'MAP, your aeronautical weather chart ! - Copyright ORBIFLY December 2007 - Disclaimer

ORBIFLY MET'MAP TEAM :

Programming & Development : Alexandra Zaïnal
Original concept : Baudouin d'Aumeries
Technical & hardware support : Manuel Goepfert
Assistance : Marc-Olivier Méhu




SOURCES & CREDITS :

   NOAA